createdAt,value
2019-05-29T00:00:35.432Z,97976.77
2019-05-29T00:03:08.298Z,97986.71
2019-05-29T00:05:40.981Z,97994.16
2019-05-29T00:08:14.684Z,97990.17
2019-05-29T00:10:47.152Z,98000.28
2019-05-29T00:13:19.743Z,97999.91
2019-05-29T00:15:52.191Z,98001.22
2019-05-29T00:18:25.648Z,98003.55
2019-05-29T00:20:58.643Z,98002.52
2019-05-29T00:23:30.974Z,98004.33
2019-05-29T00:26:03.348Z,98001.70
2019-05-29T00:28:35.811Z,97996.22
2019-05-29T00:31:07.893Z,97999.49
2019-05-29T00:33:40.856Z,98002.28
2019-05-29T00:36:14.310Z,98002.13
2019-05-29T00:38:46.826Z,97995.83
2019-05-29T00:41:19.604Z,98003.94
2019-05-29T00:43:52.317Z,98002.44
2019-05-29T00:46:24.972Z,98004.39
2019-05-29T00:48:57.581Z,98001.90
2019-05-29T00:51:30.343Z,98002.89
2019-05-29T00:54:02.857Z,98010.16
2019-05-29T00:56:35.512Z,98006.70
2019-05-29T00:59:08.969Z,98011.31
2019-05-29T01:01:42.850Z,98017.53
2019-05-29T01:04:15.754Z,98018.34
2019-05-29T01:06:48.351Z,98015.70
2019-05-29T01:09:20.851Z,98018.50
2019-05-29T01:11:53.159Z,98013.70
2019-05-29T01:14:25.924Z,98015.55
2019-05-29T01:16:58.264Z,98019.84
2019-05-29T01:19:30.611Z,98026.45
2019-05-29T01:22:03.304Z,98032.11
2019-05-29T01:24:35.745Z,98028.59
2019-05-29T01:27:08.853Z,98028.44
2019-05-29T01:29:39.632Z,98039.73
2019-05-29T01:32:11.856Z,98038.23
2019-05-29T01:34:44.591Z,98038.56
2019-05-29T01:37:18.134Z,98036.21
2019-05-29T01:39:51.115Z,98054.92
2019-05-29T01:42:25.133Z,98050.85
2019-05-29T01:45:07.575Z,98060.49
2019-05-29T01:47:32.376Z,98065.94
2019-05-29T01:50:05.336Z,98064.92
2019-05-29T01:52:38.006Z,98071.03
2019-05-29T01:55:11.044Z,98069.92
2019-05-29T01:57:43.217Z,98073.38
2019-05-29T02:00:17.711Z,98078.17
2019-05-29T02:02:50.861Z,98071.91
2019-05-29T02:05:24.006Z,98077.63
2019-05-29T02:07:56.990Z,98075.52
2019-05-29T02:10:29.100Z,98084.64
2019-05-29T02:13:01.275Z,98085.67
2019-05-29T02:15:34.220Z,98089.41
2019-05-29T02:18:06.818Z,98093.56
2019-05-29T02:20:39.156Z,98096.13
2019-05-29T02:23:11.239Z,98101.91
2019-05-29T02:25:44.118Z,98095.98
2019-05-29T02:28:16.697Z,98108.78
2019-05-29T02:30:50.421Z,98105.02
2019-05-29T02:33:26.326Z,98104.53
2019-05-29T02:35:59.569Z,98106.03
2019-05-29T02:38:31.996Z,98106.06
2019-05-29T02:41:04.060Z,98109.23
2019-05-29T02:43:37.326Z,98108.95
2019-05-29T02:46:09.658Z,98109.83
2019-05-29T02:48:42.234Z,98108.32
2019-05-29T02:51:14.905Z,98111.94
2019-05-29T02:53:47.903Z,98121.30
2019-05-29T02:56:20.691Z,98120.64
2019-05-29T02:58:51.925Z,98128.29
2019-05-29T03:01:25.401Z,98134.44
2019-05-29T03:03:58.733Z,98140.08
2019-05-29T03:06:32.312Z,98141.25
2019-05-29T03:09:06.664Z,98143.63
2019-05-29T03:11:39.077Z,98151.25
2019-05-29T03:14:10.890Z,98154.78
2019-05-29T03:16:43.565Z,98164.55
2019-05-29T03:19:15.957Z,98166.57
2019-05-29T03:21:48.372Z,98170.01
2019-05-29T03:24:20.486Z,98170.86
2019-05-29T03:26:53.533Z,98181.80
2019-05-29T03:29:27.989Z,98183.34
2019-05-29T03:32:00.553Z,98188.13
2019-05-29T03:34:39.274Z,98184.00
2019-05-29T03:37:08.401Z,98182.97
2019-05-29T03:39:40.463Z,98185.47
2019-05-29T03:42:12.515Z,98186.50
2019-05-29T03:44:44.900Z,98194.70
2019-05-29T03:47:17.255Z,98196.20
2019-05-29T03:49:49.652Z,98190.00
2019-05-29T03:52:22.355Z,98197.84
2019-05-29T03:54:54.668Z,98203.45
2019-05-29T03:57:27.677Z,98208.63
2019-05-29T04:00:01.542Z,98210.95
2019-05-29T04:02:35.263Z,98214.23
2019-05-29T04:05:08.735Z,98215.41
2019-05-29T04:07:41.750Z,98217.41
2019-05-29T04:10:16.552Z,98221.36
2019-05-29T04:12:49.373Z,98230.02
2019-05-29T04:15:21.625Z,98232.48
2019-05-29T04:17:57.302Z,98237.02
2019-05-29T04:20:31.523Z,98244.01
2019-05-29T04:23:07.243Z,98242.68
2019-05-29T04:25:42.761Z,98247.96
2019-05-29T04:28:14.686Z,98243.65
2019-05-29T04:30:47.440Z,98248.66
2019-05-29T04:33:20.006Z,98246.95
2019-05-29T04:35:52.462Z,98263.40
2019-05-29T04:38:24.813Z,98261.41
2019-05-29T04:40:57.252Z,98269.52
2019-05-29T04:43:31.090Z,98271.49
2019-05-29T04:46:03.967Z,98281.89
2019-05-29T04:48:38.372Z,98289.26
2019-05-29T04:51:11.997Z,98291.55
2019-05-29T04:53:43.575Z,98289.86
2019-05-29T04:56:15.955Z,98296.95
2019-05-29T04:58:48.908Z,98297.97
2019-05-29T05:01:21.374Z,98295.95
2019-05-29T05:03:53.812Z,98300.19
2019-05-29T05:06:26.592Z,98310.05
2019-05-29T05:08:58.955Z,98307.98
2019-05-29T05:11:31.981Z,98318.55
2019-05-29T05:14:04.460Z,98318.68
2019-05-29T05:16:37.901Z,98321.23
2019-05-29T05:19:10.510Z,98327.42
2019-05-29T05:21:43.252Z,98325.12
2019-05-29T05:24:15.760Z,98330.44
2019-05-29T05:26:48.451Z,98332.13
2019-05-29T05:29:20.954Z,98338.44
2019-05-29T05:31:54.007Z,98338.13
2019-05-29T05:34:24.931Z,98339.08
2019-05-29T05:36:57.021Z,98345.56
2019-05-29T05:39:30.714Z,98351.95
2019-05-29T05:42:03.391Z,98353.42
2019-05-29T05:44:36.963Z,98352.30
2019-05-29T05:47:10.154Z,98356.70
2019-05-29T05:49:42.535Z,98357.19
2019-05-29T05:52:15.512Z,98358.37
2019-05-29T05:54:48.759Z,98354.09
2019-05-29T05:57:21.380Z,98359.14
2019-05-29T05:59:54.429Z,98358.95
2019-05-29T06:02:25.199Z,98366.00
2019-05-29T06:04:56.895Z,98365.64
2019-05-29T06:07:30.072Z,98362.98
2019-05-29T06:10:02.634Z,98365.55
2019-05-29T06:12:36.557Z,98369.97
2019-05-29T06:15:09.596Z,98370.67
2019-05-29T06:17:57.096Z,98374.97
2019-05-29T06:20:17.082Z,98383.28
2019-05-29T06:22:49.671Z,98387.92
2019-05-29T06:25:22.349Z,98381.30
2019-05-29T06:27:55.170Z,98385.66
2019-05-29T06:30:27.984Z,98386.80
2019-05-29T06:33:00.381Z,98395.63
2019-05-29T06:35:34.210Z,98394.47
2019-05-29T06:38:07.125Z,98393.65
2019-05-29T06:40:44.051Z,98400.18
2019-05-29T06:43:24.466Z,98401.53
2019-05-29T06:45:57.771Z,98407.63
2019-05-29T06:48:58.330Z,98407.66
2019-05-29T06:51:02.263Z,98409.69
2019-05-29T06:53:35.529Z,98409.70
2019-05-29T06:56:08.417Z,98423.02
2019-05-29T06:58:42.266Z,98425.37
2019-05-29T07:01:15.010Z,98425.04
2019-05-29T07:03:48.213Z,98430.54
2019-05-29T07:06:21.045Z,98434.18
2019-05-29T07:08:53.996Z,98438.05
2019-05-29T07:11:26.561Z,98441.69
2019-05-29T07:13:59.419Z,98453.33
2019-05-29T07:16:44.076Z,98452.05
2019-05-29T07:19:25.222Z,98456.06
2019-05-29T07:21:40.939Z,98455.09
2019-05-29T07:24:13.469Z,98456.57
2019-05-29T07:26:45.815Z,98466.93
2019-05-29T07:29:18.562Z,98457.02
2019-05-29T07:31:50.981Z,98465.36
2019-05-29T07:34:23.694Z,98470.80
2019-05-29T07:36:56.391Z,98465.86
2019-05-29T07:39:28.611Z,98472.70
2019-05-29T07:42:01.280Z,98479.88
2019-05-29T07:44:34.375Z,98486.30
2019-05-29T07:47:05.238Z,98492.63
2019-05-29T07:49:40.863Z,98498.34
2019-05-29T07:52:11.998Z,98502.18
2019-05-29T07:54:45.767Z,98500.97
2019-05-29T07:57:18.781Z,98503.27
2019-05-29T07:59:51.146Z,98507.98
2019-05-29T08:02:23.756Z,98513.64
2019-05-29T08:04:55.820Z,98504.56
2019-05-29T08:07:27.667Z,98508.22
2019-05-29T08:09:59.739Z,98518.31
2019-05-29T08:12:32.935Z,98523.77
2019-05-29T08:15:07.049Z,98523.50
2019-05-29T08:17:40.217Z,98523.42
2019-05-29T08:20:12.779Z,98525.66
2019-05-29T08:22:46.388Z,98524.45
2019-05-29T08:25:19.312Z,98532.70
2019-05-29T08:27:51.386Z,98532.75
2019-05-29T08:30:23.920Z,98545.84
2019-05-29T08:32:56.592Z,98547.38
2019-05-29T08:35:29.071Z,98549.08
2019-05-29T08:38:01.185Z,98553.18
2019-05-29T08:40:34.024Z,98553.12
2019-05-29T08:43:07.169Z,98557.34
2019-05-29T08:45:39.755Z,98563.56
2019-05-29T08:48:12.190Z,98569.38
2019-05-29T08:50:45.692Z,98558.48
2019-05-29T08:53:19.046Z,98571.62
2019-05-29T08:55:50.815Z,98572.77
2019-05-29T08:58:23.158Z,98576.81
2019-05-29T09:00:55.917Z,98583.16
2019-05-29T09:03:27.954Z,98588.52
2019-05-29T09:06:08.551Z,98590.50
2019-05-29T09:08:35.322Z,98594.52
2019-05-29T09:11:09.427Z,98597.48
2019-05-29T09:13:41.926Z,98591.31
2019-05-29T09:16:14.623Z,98596.48
2019-05-29T09:18:47.391Z,98604.78
2019-05-29T09:21:20.649Z,98606.09
2019-05-29T09:23:53.817Z,98601.98
2019-05-29T09:26:26.175Z,98609.75
2019-05-29T09:28:58.751Z,98606.33
2019-05-29T09:31:31.769Z,98612.19
2019-05-29T09:34:02.548Z,98611.80
2019-05-29T09:36:34.962Z,98611.66
2019-05-29T09:39:10.107Z,98617.38
2019-05-29T09:41:43.177Z,98617.81
2019-05-29T09:44:32.967Z,98627.61
2019-05-29T09:46:50.273Z,98624.95
2019-05-29T09:49:23.937Z,98629.27
2019-05-29T09:51:56.547Z,98638.29
2019-05-29T09:54:28.787Z,98636.64
2019-05-29T09:57:02.830Z,98636.03
2019-05-29T09:59:35.817Z,98630.91
2019-05-29T10:02:09.513Z,98635.69
2019-05-29T10:04:43.592Z,98639.96
2019-05-29T10:07:15.980Z,98638.70
2019-05-29T10:09:49.047Z,98633.16
2019-05-29T10:12:22.131Z,98638.24
2019-05-29T10:14:55.702Z,98641.45
2019-05-29T10:17:28.250Z,98641.66
2019-05-29T10:20:00.795Z,98651.64
2019-05-29T10:22:33.293Z,98652.89
2019-05-29T10:25:06.444Z,98652.67
2019-05-29T10:27:40.702Z,98661.40
2019-05-29T10:30:14.619Z,98669.19
2019-05-29T10:32:48.064Z,98666.27
2019-05-29T10:35:20.622Z,98668.84
2019-05-29T10:37:53.275Z,98668.90
2019-05-29T10:40:26.195Z,98680.30
2019-05-29T10:42:57.260Z,98670.92
2019-05-29T10:45:29.319Z,98677.79
2019-05-29T10:48:01.312Z,98684.09
2019-05-29T10:50:33.448Z,98685.00
2019-05-29T10:53:06.146Z,98682.80
2019-05-29T10:55:39.212Z,98690.66
2019-05-29T10:58:11.943Z,98678.36
2019-05-29T11:00:45.408Z,98682.41
2019-05-29T11:03:18.653Z,98688.20
2019-05-29T11:05:51.611Z,98699.05
2019-05-29T11:08:24.177Z,98691.73
2019-05-29T11:10:56.428Z,98692.03
2019-05-29T11:13:28.941Z,98692.28
2019-05-29T11:16:01.848Z,98685.34
2019-05-29T11:18:33.655Z,98698.25
2019-05-29T11:21:06.533Z,98696.69
2019-05-29T11:23:39.103Z,98699.91
2019-05-29T11:26:11.415Z,98693.70
2019-05-29T11:28:43.704Z,98701.75
2019-05-29T11:31:16.230Z,98706.84
2019-05-29T11:33:49.034Z,98699.67
2019-05-29T11:36:21.305Z,98700.93
2019-05-29T11:38:54.548Z,98703.15
2019-05-29T11:41:27.187Z,98703.84
2019-05-29T11:44:00.266Z,98704.41
2019-05-29T11:46:33.005Z,98702.10
2019-05-29T11:49:05.981Z,98702.89
2019-05-29T11:51:37.970Z,98710.23
2019-05-29T11:54:10.046Z,98703.92
2019-05-29T11:56:43.317Z,98703.08
2019-05-29T11:59:15.459Z,98707.09
2019-05-29T12:01:50.632Z,98704.13
2019-05-29T12:04:26.228Z,98705.23
2019-05-29T12:06:55.600Z,98700.56
2019-05-29T12:09:32.879Z,98708.45
2019-05-29T12:12:02.144Z,98704.09
2019-05-29T12:14:57.665Z,98707.94
2019-05-29T12:17:08.969Z,98707.44
2019-05-29T12:19:41.382Z,98700.19
2019-05-29T12:22:13.815Z,98705.64
2019-05-29T12:24:46.195Z,98695.88
2019-05-29T12:27:18.636Z,98697.80
2019-05-29T12:29:50.944Z,98695.34
2019-05-29T12:32:24.104Z,98683.35
2019-05-29T12:34:58.246Z,98679.22
2019-05-29T12:37:30.950Z,98690.39
2019-05-29T12:40:03.800Z,98693.36
2019-05-29T12:42:37.024Z,98694.67
2019-05-29T12:45:10.985Z,98696.52
2019-05-29T12:47:43.205Z,98695.40
2019-05-29T12:50:17.570Z,98698.37
2019-05-29T12:52:50.821Z,98704.69
2019-05-29T12:55:22.613Z,98702.24
2019-05-29T12:57:55.904Z,98706.42
2019-05-29T13:00:28.770Z,98706.13
2019-05-29T13:03:01.072Z,98705.00
2019-05-29T13:05:33.915Z,98703.14
2019-05-29T13:08:06.572Z,98709.16
2019-05-29T13:10:38.941Z,98712.56
2019-05-29T13:13:11.614Z,98720.64
2019-05-29T13:15:44.021Z,98717.38
2019-05-29T13:18:16.453Z,98711.48
2019-05-29T13:20:48.830Z,98711.46
2019-05-29T13:23:21.774Z,98715.30
2019-05-29T13:25:55.338Z,98711.91
2019-05-29T13:28:27.404Z,98723.25
2019-05-29T13:31:01.661Z,98718.70
2019-05-29T13:33:34.613Z,98719.37
2019-05-29T13:36:06.943Z,98712.79
2019-05-29T13:38:39.795Z,98709.98
2019-05-29T13:41:12.335Z,98702.92
2019-05-29T13:43:44.372Z,98702.58
2019-05-29T13:46:16.501Z,98704.29
2019-05-29T13:48:49.368Z,98714.97
2019-05-29T13:51:22.238Z,98716.69
2019-05-29T13:54:03.755Z,98719.44
2019-05-29T13:56:28.842Z,98721.27
2019-05-29T13:59:00.022Z,98722.28
2019-05-29T14:01:32.400Z,98715.55
2019-05-29T14:04:05.143Z,98721.23
2019-05-29T14:06:36.582Z,98722.42
2019-05-29T14:09:10.067Z,98725.06
2019-05-29T14:11:43.432Z,98735.87
2019-05-29T14:14:15.848Z,98735.95
2019-05-29T14:16:48.870Z,98733.99
2019-05-29T14:19:21.119Z,98738.37
2019-05-29T14:21:53.875Z,98742.84
2019-05-29T14:24:29.457Z,98747.09
2019-05-29T14:26:58.878Z,98751.50
2019-05-29T14:29:31.620Z,98747.45
2019-05-29T14:32:03.020Z,98750.53
2019-05-29T14:34:35.192Z,98751.97
2019-05-29T14:37:07.998Z,98749.89
2019-05-29T14:39:40.761Z,98753.28
2019-05-29T14:42:12.802Z,98752.41
2019-05-29T14:44:44.949Z,98756.38
2019-05-29T14:47:17.022Z,98749.58
2019-05-29T14:49:49.114Z,98758.76
2019-05-29T14:52:21.510Z,98761.91
2019-05-29T14:54:54.195Z,98753.55
2019-05-29T14:57:26.525Z,98754.88
2019-05-29T14:59:58.838Z,98759.45
2019-05-29T15:02:30.900Z,98763.76
2019-05-29T15:05:03.847Z,98766.69
2019-05-29T15:07:37.167Z,98769.59
2019-05-29T15:10:24.056Z,98767.97
2019-05-29T15:12:45.135Z,98772.23
2019-05-29T15:15:17.836Z,98773.44
2019-05-29T15:17:50.615Z,98778.84
2019-05-29T15:20:23.106Z,98776.84
2019-05-29T15:22:56.238Z,98777.92
2019-05-29T15:25:28.791Z,98780.65
2019-05-29T15:28:01.190Z,98779.59
2019-05-29T15:30:33.673Z,98784.34
2019-05-29T15:33:06.384Z,98791.42
2019-05-29T15:35:38.688Z,98782.63
2019-05-29T15:38:12.741Z,98783.47
2019-05-29T15:40:45.181Z,98786.77
2019-05-29T15:43:17.873Z,98788.04
2019-05-29T15:45:50.616Z,98794.14
2019-05-29T15:48:22.948Z,98786.66
2019-05-29T15:50:55.742Z,98788.95
2019-05-29T15:53:28.154Z,98794.55
2019-05-29T15:56:16.925Z,98789.81
2019-05-29T15:58:35.359Z,98785.80
2019-05-29T16:01:09.635Z,98783.64
2019-05-29T16:03:42.165Z,98786.77
2019-05-29T16:06:15.768Z,98784.38
2019-05-29T16:08:48.430Z,98783.67
2019-05-29T16:11:25.184Z,98777.25
2019-05-29T16:13:55.662Z,98780.02
2019-05-29T16:16:27.728Z,98785.47
2019-05-29T16:19:00.589Z,98777.47
2019-05-29T16:21:32.913Z,98783.19
2019-05-29T16:26:36.257Z,98785.55
2019-05-29T16:29:10.333Z,98778.14
2019-05-29T16:31:42.812Z,98780.78
2019-05-29T16:34:18.417Z,98778.20
2019-05-29T16:36:49.317Z,98775.28
2019-05-29T16:39:22.742Z,98778.09
2019-05-29T16:41:54.890Z,98771.64
2019-05-29T16:44:29.605Z,98779.45
2019-05-29T16:47:01.843Z,98777.98
2019-05-29T16:49:32.954Z,98779.27
2019-05-29T16:52:05.108Z,98781.87
2019-05-29T16:54:37.573Z,98783.75
2019-05-29T16:57:10.009Z,98791.30
2019-05-29T16:59:42.214Z,98791.77
2019-05-29T17:02:15.604Z,98785.39
2019-05-29T17:04:48.502Z,98793.02
2019-05-29T17:07:20.298Z,98791.91
2019-05-29T17:09:52.940Z,98802.50
2019-05-29T17:12:24.726Z,98794.34
2019-05-29T17:14:57.779Z,98797.20
2019-05-29T17:17:30.792Z,98800.39
2019-05-29T17:20:03.577Z,98799.63
2019-05-29T17:22:36.265Z,98801.40
2019-05-29T17:25:11.279Z,98803.09
2019-05-29T17:27:43.541Z,98809.17
2019-05-29T17:30:21.038Z,98807.86
2019-05-29T17:32:53.399Z,98810.39
2019-05-29T17:35:26.478Z,98815.80
2019-05-29T17:37:58.895Z,98817.52
2019-05-29T17:40:30.011Z,98813.84
2019-05-29T17:43:02.115Z,98812.05
2019-05-29T17:45:34.222Z,98821.06
2019-05-29T17:48:07.442Z,98819.14
2019-05-29T17:50:39.909Z,98824.28
2019-05-29T17:53:11.318Z,98829.78
2019-05-29T17:55:46.703Z,98833.30
2019-05-29T17:58:18.785Z,98836.48
2019-05-29T18:00:52.401Z,98839.17
2019-05-29T18:03:24.722Z,98838.85
2019-05-29T18:05:56.847Z,98835.84
2019-05-29T18:08:29.925Z,98835.03
2019-05-29T18:11:02.513Z,98841.06
2019-05-29T18:13:33.581Z,98850.67
2019-05-29T18:16:05.859Z,98853.36
2019-05-29T18:18:37.852Z,98855.44
2019-05-29T18:21:10.697Z,98855.94
2019-05-29T18:23:43.580Z,98854.08
2019-05-29T18:26:14.767Z,98857.33
2019-05-29T18:28:47.199Z,98861.05
2019-05-29T18:31:20.330Z,98857.27
2019-05-29T18:33:53.722Z,98861.67
2019-05-29T18:36:27.471Z,98860.84
2019-05-29T18:39:00.471Z,98877.62
2019-05-29T18:41:32.866Z,98875.62
2019-05-29T18:44:05.273Z,98876.46
2019-05-29T18:46:38.298Z,98877.62
2019-05-29T18:49:14.513Z,98882.74
2019-05-29T18:51:45.758Z,98889.00
2019-05-29T18:54:18.493Z,98891.73
2019-05-29T18:57:13.957Z,98892.27
2019-05-29T18:59:25.634Z,98896.11
2019-05-29T19:01:58.590Z,98901.86
2019-05-29T19:04:29.927Z,98897.89
2019-05-29T19:07:02.078Z,98904.31
2019-05-29T19:09:34.871Z,98908.39
2019-05-29T19:12:06.966Z,98910.73
2019-05-29T19:14:39.511Z,98920.59
2019-05-29T19:17:12.291Z,98921.34
2019-05-29T19:19:43.080Z,98924.25
2019-05-29T19:22:15.494Z,98928.08
2019-05-29T19:24:48.305Z,98933.95
2019-05-29T19:27:31.290Z,98933.92
2019-05-29T19:29:55.531Z,98945.48
2019-05-29T19:32:29.343Z,98952.44
2019-05-29T19:35:02.544Z,98956.55
2019-05-29T19:37:35.966Z,98955.38
2019-05-29T19:40:10.210Z,98960.27
2019-05-29T19:42:43.267Z,98962.75
2019-05-29T19:45:17.802Z,98966.63
2019-05-29T19:47:50.437Z,98966.98
2019-05-29T19:50:23.144Z,98969.47
2019-05-29T19:52:55.829Z,98974.19
2019-05-29T19:55:31.745Z,98977.59
2019-05-29T19:58:03.116Z,98976.90
2019-05-29T20:00:36.304Z,98981.08
2019-05-29T20:03:09.042Z,98987.81
2019-05-29T20:05:41.477Z,98990.76
2019-05-29T20:08:14.703Z,98996.45
2019-05-29T20:10:47.709Z,99001.41
2019-05-29T20:13:20.407Z,99002.41
2019-05-29T20:15:52.811Z,99001.64
2019-05-29T20:18:25.274Z,99004.04
2019-05-29T20:20:57.587Z,99007.65
2019-05-29T20:23:30.563Z,99011.63
2019-05-29T20:26:02.904Z,99011.57
2019-05-29T20:28:36.339Z,99011.61
2019-05-29T20:31:11.877Z,99019.06
2019-05-29T20:33:43.803Z,99008.43
2019-05-29T20:36:16.402Z,99013.94
2019-05-29T20:38:48.860Z,99018.53
2019-05-29T20:41:21.596Z,99022.89
2019-05-29T20:43:54.286Z,99024.53
2019-05-29T20:46:26.599Z,99024.34
2019-05-29T20:48:59.280Z,99029.25
2019-05-29T20:51:32.760Z,99028.53
2019-05-29T20:54:06.220Z,99025.66
2019-05-29T20:56:39.871Z,99035.34
2019-05-29T20:59:13.217Z,99042.17
2019-05-29T21:01:47.361Z,99045.62
2019-05-29T21:04:18.642Z,99049.05
2019-05-29T21:06:51.413Z,99050.63
2019-05-29T21:09:23.501Z,99053.08
2019-05-29T21:11:56.457Z,99060.12
2019-05-29T21:14:29.211Z,99060.47
2019-05-29T21:17:01.996Z,99058.20
2019-05-29T21:19:36.348Z,99059.66
2019-05-29T21:22:09.368Z,99062.22
2019-05-29T21:24:46.326Z,99056.73
2019-05-29T21:27:16.424Z,99054.96
2019-05-29T21:29:49.154Z,99055.84
2019-05-29T21:32:21.603Z,99053.54
2019-05-29T21:34:53.864Z,99060.97
2019-05-29T21:37:26.529Z,99063.40
2019-05-29T21:39:59.409Z,99062.22
2019-05-29T21:42:33.140Z,99062.25
2019-05-29T21:45:06.998Z,99059.73
2019-05-29T21:47:40.963Z,99060.55
2019-05-29T21:50:14.054Z,99062.71
2019-05-29T21:52:47.569Z,99071.27
2019-05-29T21:55:21.143Z,99074.98
2019-05-29T21:57:52.890Z,99076.19
2019-05-29T22:00:33.241Z,99087.64
2019-05-29T22:03:07.204Z,99075.34
2019-05-29T22:05:40.647Z,99084.52
2019-05-29T22:08:11.454Z,99082.57
2019-05-29T22:10:43.472Z,99084.37
2019-05-29T22:13:16.298Z,99090.36
2019-05-29T22:15:48.624Z,99084.13
2019-05-29T22:18:21.463Z,99084.48
2019-05-29T22:20:57.048Z,99091.69
2019-05-29T22:23:29.175Z,99093.23
2019-05-29T22:26:01.649Z,99090.44
2019-05-29T22:28:34.224Z,99087.08
2019-05-29T22:31:07.270Z,99090.42
2019-05-29T22:33:40.186Z,99092.55
2019-05-29T22:36:11.765Z,99090.78
2019-05-29T22:38:43.787Z,99093.42
2019-05-29T22:41:16.742Z,99094.40
2019-05-29T22:43:49.921Z,99097.20
2019-05-29T22:46:22.014Z,99100.59
2019-05-29T22:48:55.764Z,99098.19
2019-05-29T22:51:29.203Z,99098.34
2019-05-29T22:54:02.069Z,99099.61
2019-05-29T22:56:34.449Z,99095.58
2019-05-29T22:59:06.692Z,99095.75
2019-05-29T23:01:39.357Z,99099.84
2019-05-29T23:04:11.414Z,99099.63
2019-05-29T23:06:44.020Z,99103.78
2019-05-29T23:09:17.233Z,99106.73
2019-05-29T23:11:50.124Z,99105.12
2019-05-29T23:14:22.492Z,99109.28
2019-05-29T23:16:54.805Z,99104.77
2019-05-29T23:19:27.113Z,99105.53
2019-05-29T23:22:01.150Z,99099.14
2019-05-29T23:24:34.334Z,99099.83
2019-05-29T23:27:07.272Z,99100.08
2019-05-29T23:29:48.527Z,99102.99
2019-05-29T23:32:14.109Z,99100.13
2019-05-29T23:34:46.746Z,99104.84
2019-05-29T23:37:19.147Z,99103.41
2019-05-29T23:39:51.213Z,99110.85
2019-05-29T23:42:23.564Z,99118.22
2019-05-29T23:44:57.621Z,99116.19
2019-05-29T23:47:30.990Z,99118.50
2019-05-29T23:50:04.449Z,99110.16
2019-05-29T23:52:37.618Z,99111.97
2019-05-29T23:55:11.385Z,99108.58
2019-05-29T23:57:43.741Z,99111.97
